createdAt,value
2022-10-04T00:09:41.921Z,11
2022-10-04T00:19:45.675Z,7
2022-10-04T00:29:53.046Z,7
2022-10-04T00:39:59.233Z,9
2022-10-04T00:50:05.711Z,11
2022-10-04T01:00:11.771Z,16
2022-10-04T01:10:17.514Z,11
2022-10-04T01:20:22.730Z,10
2022-10-04T01:30:27.780Z,7
2022-10-04T01:40:35.058Z,8
2022-10-04T01:50:46.155Z,9
2022-10-04T02:00:47.695Z,20
2022-10-04T02:10:53.578Z,19
2022-10-04T02:20:59.654Z,13
2022-10-04T02:31:04.843Z,13
2022-10-04T02:41:10.658Z,9
2022-10-04T02:51:15.864Z,11
2022-10-04T03:01:23.034Z,8
2022-10-04T03:11:28.672Z,7
2022-10-04T03:21:34.124Z,9
2022-10-04T03:31:40.451Z,8
2022-10-04T03:41:46.595Z,9
2022-10-04T03:51:51.833Z,6
2022-10-04T04:01:57.543Z,8
2022-10-04T04:12:03.493Z,13
2022-10-04T04:22:07.731Z,9
2022-10-04T04:32:14.366Z,7
2022-10-04T04:42:26.403Z,9
2022-10-04T04:52:28.145Z,9
2022-10-04T05:02:35.325Z,15
2022-10-04T05:12:39.238Z,13
2022-10-04T05:22:44.617Z,9
2022-10-04T05:32:51.259Z,17
2022-10-04T05:42:56.246Z,8
2022-10-04T05:53:01.923Z,10
2022-10-04T06:03:06.644Z,5
2022-10-04T06:13:14.737Z,6
2022-10-04T06:23:18.538Z,9
2022-10-04T06:33:23.560Z,12
2022-10-04T06:43:28.220Z,6
2022-10-04T06:53:32.458Z,5
2022-10-04T07:03:35.279Z,6
2022-10-04T07:13:41.173Z,7
2022-10-04T07:23:48.662Z,7
2022-10-04T07:33:54.078Z,6
2022-10-04T07:43:59.568Z,5
2022-10-04T07:54:06.328Z,3
2022-10-04T08:04:11.915Z,6
2022-10-04T08:14:17.429Z,5
2022-10-04T08:24:21.496Z,6
2022-10-04T08:34:27.917Z,4
2022-10-04T08:44:34.473Z,5
2022-10-04T08:54:41.513Z,3
2022-10-04T09:04:49.109Z,4
2022-10-04T09:14:54.413Z,5
2022-10-04T09:25:00.262Z,6
2022-10-04T09:35:11.918Z,7
2022-10-04T09:45:11.875Z,6
2022-10-04T09:55:25.860Z,5
2022-10-04T10:05:23.910Z,4
2022-10-04T10:15:30.011Z,4
2022-10-04T10:25:39.827Z,6
2022-10-04T10:35:40.647Z,4
2022-10-04T10:45:46.430Z,5
2022-10-04T10:55:52.506Z,5
2022-10-04T11:05:58.270Z,5
2022-10-04T11:16:04.587Z,7
2022-10-04T11:26:09.181Z,6
2022-10-04T11:36:14.428Z,5
2022-10-04T11:46:19.963Z,5
2022-10-04T11:56:25.410Z,5
2022-10-04T12:06:30.830Z,6
2022-10-04T12:16:37.912Z,4
2022-10-04T12:26:49.410Z,5
2022-10-04T12:36:50.765Z,9
2022-10-04T12:46:57.153Z,5
2022-10-04T12:57:02.532Z,5
2022-10-04T13:07:13.534Z,5
2022-10-04T13:18:34.322Z,5
2022-10-04T13:28:42.269Z,6
2022-10-04T13:38:48.602Z,6
2022-10-04T13:49:03.580Z,5
2022-10-04T13:58:58.796Z,5
2022-10-04T14:09:02.835Z,4
2022-10-04T14:19:13.937Z,4
2022-10-04T14:29:15.966Z,3
2022-10-04T14:39:22.539Z,5
2022-10-04T14:49:29.494Z,5
2022-10-04T14:59:33.904Z,4
2022-10-04T15:09:38.155Z,5
2022-10-04T15:20:11.554Z,6
2022-10-04T15:30:18.805Z,5
2022-10-04T15:40:28.777Z,6
2022-10-04T15:50:30.055Z,6
2022-10-04T16:00:37.284Z,5
2022-10-04T16:10:43.130Z,9
2022-10-04T16:20:50.924Z,9
2022-10-04T16:31:16.523Z,6
2022-10-04T16:41:14.867Z,14
2022-10-04T16:51:20.275Z,7
2022-10-04T17:01:27.006Z,6
2022-10-04T17:11:31.019Z,6
2022-10-04T17:21:35.616Z,7
2022-10-04T17:31:43.023Z,7
2022-10-04T17:41:48.490Z,4
2022-10-04T17:51:54.586Z,7
2022-10-04T18:01:59.351Z,5
2022-10-04T18:12:04.658Z,8
2022-10-04T18:22:09.969Z,4
2022-10-04T18:32:15.738Z,8
2022-10-04T18:42:21.586Z,4
2022-10-04T18:52:25.168Z,6
2022-10-04T19:02:34.825Z,6
2022-10-04T19:12:36.503Z,4
2022-10-04T19:22:43.252Z,6
2022-10-04T19:32:50.512Z,5
2022-10-04T19:42:56.860Z,4
2022-10-04T19:53:02.597Z,4
2022-10-04T20:03:08.785Z,6
2022-10-04T20:13:13.223Z,6
2022-10-04T20:23:19.655Z,9
2022-10-04T20:33:29.718Z,7
2022-10-04T20:43:30.640Z,12
2022-10-04T20:53:36.434Z,4
2022-10-04T21:03:42.134Z,4
2022-10-04T21:13:48.633Z,6
2022-10-04T21:23:54.476Z,4
2022-10-04T21:34:01.781Z,5
2022-10-04T21:44:06.247Z,5
2022-10-04T21:54:12.273Z,4
2022-10-04T22:04:17.876Z,4
2022-10-04T22:14:23.429Z,6
2022-10-04T22:24:29.949Z,6
2022-10-04T22:34:36.760Z,4
2022-10-04T22:44:40.802Z,4
2022-10-04T22:54:46.347Z,4
2022-10-04T23:04:50.502Z,3
2022-10-04T23:14:56.205Z,3
2022-10-04T23:25:03.929Z,5
2022-10-04T23:35:10.396Z,4
2022-10-04T23:45:16.416Z,5
2022-10-04T23:55:23.754Z,5
